Time;durP1;ratioP1;P1;durP2;ratioP2;P2;SDS_P1;SDS_P2;PMS_P1;PMS_P2;Temp;Humidity;BMP_temperature;BMP_pressure;BME280_temperature;BME280_humidity;BME280_pressure;Samples;Min_cycle;Max_cycle;Signal;HPM_P1;HPM_P2
2023/11/28 00:01:45;;;;;;;0.60;0.30;;;;;;;1.80;100.00;94960.56;5032897;28;20046;-64
2023/11/28 00:04:12;;;;;;;0.10;0.10;;;;;;;1.78;100.00;94959.19;5043161;28;20039;-64
2023/11/28 00:06:39;;;;;;;0.20;0.20;;;;;;;1.80;100.00;94943.72;5035158;28;20424;-64
2023/11/28 00:09:06;;;;;;;0.30;0.25;;;;;;;1.80;100.00;94946.41;5038966;28;20040;-64
2023/11/28 00:11:33;;;;;;;0.47;0.32;;;;;;;1.81;100.00;94940.81;5039434;28;20486;-64
2023/11/28 00:13:59;;;;;;;0.20;0.20;;;;;;;1.74;100.00;94942.91;5043624;28;20116;-64
2023/11/28 00:16:26;;;;;;;0.60;0.30;;;;;;;1.73;100.00;94935.94;5040983;28;20045;-64
2023/11/28 00:18:52;;;;;;;1.27;0.20;;;;;;;1.84;100.00;94936.81;5038239;28;20530;-64
2023/11/28 00:21:19;;;;;;;0.20;0.20;;;;;;;1.81;100.00;94942.69;5033628;28;20040;-64
2023/11/28 00:23:45;;;;;;;0.55;0.30;;;;;;;1.75;100.00;94925.84;5042278;28;20029;-64
2023/11/28 00:26:14;;;;;;;0.32;0.30;;;;;;;1.79;100.00;94912.78;5041920;28;20636;-64
2023/11/28 00:28:54;;;;;;;0.20;0.20;;;;;;;1.76;100.00;94913.28;5034587;28;20400;-64
2023/11/28 00:31:20;;;;;;;0.55;0.30;;;;;;;1.76;100.00;94915.94;5037410;28;20132;-64
2023/11/28 00:33:47;;;;;;;0.50;0.35;;;;;;;1.78;100.00;94903.16;5039452;28;20065;-63
2023/11/28 00:36:17;;;;;;;0.20;0.20;;;;;;;1.81;100.00;94914.13;5039594;28;20072;-64
2023/11/28 00:38:43;;;;;;;0.65;0.25;;;;;;;1.86;100.00;94907.22;5036869;28;20041;-64
2023/11/28 00:41:11;;;;;;;0.20;0.20;;;;;;;1.85;100.00;94905.63;5033745;28;20052;-64
2023/11/28 00:43:39;;;;;;;0.20;0.20;;;;;;;1.97;100.00;94898.22;5034552;28;20519;-64
2023/11/28 00:46:06;;;;;;;2.20;0.20;;;;;;;2.05;100.00;94908.41;5035065;28;20585;-63
2023/11/28 00:48:33;;;;;;;0.10;0.10;;;;;;;1.95;100.00;94906.47;5034189;28;20049;-64
2023/11/28 00:50:59;;;;;;;0.22;0.20;;;;;;;1.94;100.00;94898.72;5039856;28;20536;-64
2023/11/28 00:53:26;;;;;;;0.35;0.30;;;;;;;1.95;100.00;94895.00;5024030;28;20132;-64
2023/11/28 00:55:53;;;;;;;0.10;0.10;;;;;;;1.99;100.00;94889.97;5037955;28;20639;-64
2023/11/28 00:58:19;;;;;;;0.25;0.20;;;;;;;1.91;100.00;94885.88;5039960;28;20037;-64
2023/11/28 01:00:46;;;;;;;0.95;0.30;;;;;;;1.85;100.00;94886.94;5043637;28;20045;-64
2023/11/28 01:03:12;;;;;;;0.20;0.20;;;;;;;1.90;100.00;94890.44;5039174;28;20038;-64
2023/11/28 01:05:41;;;;;;;0.45;0.20;;;;;;;1.92;100.00;94880.31;5034302;28;20079;-64
2023/11/28 01:08:08;;;;;;;0.20;0.20;;;;;;;1.96;100.00;94891.28;5028455;28;20061;-64
2023/11/28 01:10:35;;;;;;;0.55;0.20;;;;;;;2.03;100.00;94883.03;5041616;28;20409;-64
2023/11/28 01:13:02;;;;;;;0.20;0.20;;;;;;;2.02;100.00;94889.41;5041338;28;20499;-64
2023/11/28 01:15:28;;;;;;;0.35;0.20;;;;;;;2.05;100.00;94880.91;5038371;28;20127;-64
2023/11/28 01:17:55;;;;;;;0.70;0.40;;;;;;;2.08;100.00;94881.22;5044051;28;20045;-64
2023/11/28 01:20:21;;;;;;;0.52;0.38;;;;;;;2.10;100.00;94870.25;5035405;28;20068;-64
2023/11/28 01:22:48;;;;;;;0.25;0.25;;;;;;;2.19;100.00;94875.91;5032649;28;20041;-64
2023/11/28 01:25:14;;;;;;;0.47;0.28;;;;;;;2.15;100.00;94875.63;5038597;28;20441;-64
2023/11/28 01:27:41;;;;;;;0.30;0.20;;;;;;;2.19;100.00;94875.91;5034972;28;20075;-64
2023/11/28 01:30:08;;;;;;;0.38;0.32;;;;;;;2.23;100.00;94874.31;5037426;28;20041;-64
2023/11/28 01:32:35;;;;;;;0.45;0.32;;;;;;;2.29;100.00;94873.25;5047103;28;20041;-64
2023/11/28 01:35:02;;;;;;;0.77;0.20;;;;;;;2.33;100.00;94874.34;5033670;28;20062;-64
2023/11/28 01:37:29;;;;;;;0.47;0.38;;;;;;;2.44;100.00;94871.72;5033058;28;20041;-64
2023/11/28 01:39:56;;;;;;;0.20;0.20;;;;;;;2.33;100.00;94873.56;5036167;28;20045;-64
2023/11/28 01:42:22;;;;;;;1.48;0.52;;;;;;;2.36;100.00;94877.56;5029005;28;20036;-64
2023/11/28 01:44:49;;;;;;;0.65;0.32;;;;;;;2.41;100.00;94875.72;5042630;28;20048;-64
2023/11/28 01:47:15;;;;;;;0.38;0.25;;;;;;;2.33;100.00;94868.22;5032373;28;20638;-64
2023/11/28 01:49:43;;;;;;;1.20;0.30;;;;;;;2.30;100.00;94860.72;5039139;28;20056;-64
2023/11/28 01:52:10;;;;;;;0.60;0.30;;;;;;;2.29;100.00;94865.25;5035517;28;20080;-64
2023/11/28 01:54:37;;;;;;;0.95;0.40;;;;;;;2.33;100.00;94862.88;5040424;28;20486;-64
2023/11/28 01:57:05;;;;;;;0.28;0.20;;;;;;;2.30;100.00;94869.56;5032342;28;20045;-64
2023/11/28 01:59:33;;;;;;;0.73;0.40;;;;;;;2.31;100.00;94862.31;5037386;28;20064;-64
2023/11/28 02:02:00;;;;;;;0.47;0.30;;;;;;;2.37;100.00;94863.16;5041170;28;20099;-64
2023/11/28 02:04:27;;;;;;;0.32;0.30;;;;;;;2.39;100.00;94861.03;5034265;28;20123;-64
2023/11/28 02:06:54;;;;;;;0.52;0.30;;;;;;;2.41;100.00;94859.72;5039435;28;20040;-64
2023/11/28 02:09:20;;;;;;;0.45;0.30;;;;;;;2.43;100.00;94868.25;5043561;28;20040;-64
2023/11/28 02:11:48;;;;;;;0.82;0.30;;;;;;;2.42;100.00;94861.31;5032171;28;20039;-64
2023/11/28 02:14:14;;;;;;;0.20;0.20;;;;;;;2.44;100.00;94863.72;5041560;28;20137;-64
2023/11/28 02:16:41;;;;;;;0.90;0.50;;;;;;;2.43;100.00;94860.25;5026712;28;20053;-64
2023/11/28 02:19:07;;;;;;;0.38;0.30;;;;;;;2.37;100.00;94857.81;5044715;28;20586;-64
2023/11/28 02:21:34;;;;;;;0.50;0.17;;;;;;;2.40;100.00;94860.75;5034657;28;20428;-64
2023/11/28 02:24:01;;;;;;;0.43;0.25;;;;;;;2.40;100.00;94859.97;5039446;28;20044;-64
2023/11/28 02:26:28;;;;;;;0.85;0.47;;;;;;;2.42;100.00;94863.16;5037189;28;20068;-64
2023/11/28 02:28:56;;;;;;;0.82;0.40;;;;;;;2.44;100.00;94859.16;5035971;28;20033;-65
2023/11/28 02:31:23;;;;;;;0.40;0.40;;;;;;;2.58;100.00;94858.69;5040606;28;20040;-64
2023/11/28 02:33:51;;;;;;;0.30;0.30;;;;;;;2.57;100.00;94857.88;5037114;28;20045;-64
2023/11/28 02:36:21;;;;;;;0.30;0.22;;;;;;;2.60;100.00;94851.22;5033700;28;20497;-64
2023/11/28 02:38:48;;;;;;;0.63;0.32;;;;;;;2.60;100.00;94856.53;5030707;28;20510;-64
2023/11/28 02:41:15;;;;;;;0.90;0.40;;;;;;;2.60;100.00;94848.53;5012269;28;20033;-64
2023/11/28 02:43:41;;;;;;;0.70;0.43;;;;;;;2.55;100.00;94848.53;5032948;28;20048;-64
2023/11/28 02:46:08;;;;;;;1.02;0.50;;;;;;;2.53;100.00;94847.97;5040464;28;20063;-64
2023/11/28 02:48:34;;;;;;;0.80;0.60;;;;;;;2.56;100.00;94842.94;5026103;28;20609;-64
2023/11/28 02:51:01;;;;;;;1.00;0.40;;;;;;;2.62;100.00;94840.25;5037537;28;20045;-64
2023/11/28 02:53:28;;;;;;;0.52;0.40;;;;;;;2.62;100.00;94838.41;5035946;28;20122;-64
2023/11/28 02:55:55;;;;;;;0.55;0.45;;;;;;;2.59;100.00;94844.25;5015289;28;20064;-64
2023/11/28 02:58:21;;;;;;;0.85;0.30;;;;;;;2.69;100.00;94838.16;5037196;28;20065;-64
2023/11/28 03:00:48;;;;;;;0.70;0.45;;;;;;;2.72;100.00;94835.75;5032496;28;20051;-64
2023/11/28 03:03:14;;;;;;;0.35;0.35;;;;;;;2.79;100.00;94837.34;5031783;28;20068;-64
2023/11/28 03:05:41;;;;;;;0.65;0.40;;;;;;;2.91;100.00;94835.22;5038331;28;20507;-64
2023/11/28 03:08:08;;;;;;;0.30;0.28;;;;;;;2.85;100.00;94828.28;5030166;28;20128;-64
2023/11/28 03:10:35;;;;;;;1.08;0.50;;;;;;;2.75;100.00;94834.41;5038057;28;20059;-64
2023/11/28 03:13:01;;;;;;;0.55;0.40;;;;;;;2.92;100.00;94834.19;5040165;28;20518;-64
2023/11/28 03:15:28;;;;;;;2.92;0.75;;;;;;;2.90;100.00;94828.28;5030402;28;20041;-64
2023/11/28 03:17:54;;;;;;;0.65;0.40;;;;;;;2.97;100.00;94834.16;5033667;28;20055;-64
2023/11/28 03:20:21;;;;;;;0.35;0.30;;;;;;;3.02;100.00;94832.56;5037661;28;20034;-64
2023/11/28 03:22:48;;;;;;;0.28;0.25;;;;;;;3.01;100.00;94813.03;5038820;28;20049;-64
2023/11/28 03:25:15;;;;;;;0.50;0.30;;;;;;;2.83;100.00;94823.19;5043487;28;20447;-64
2023/11/28 03:27:42;;;;;;;0.63;0.40;;;;;;;2.66;100.00;94828.78;5035666;28;20056;-64
2023/11/28 03:30:09;;;;;;;0.32;0.22;;;;;;;2.75;100.00;94817.56;5048982;28;20059;-64
2023/11/28 03:32:36;;;;;;;1.90;0.50;;;;;;;2.79;100.00;94821.31;5034560;28;20106;-64
2023/11/28 03:35:03;;;;;;;0.60;0.40;;;;;;;2.83;100.00;94819.72;5037711;28;20033;-64
2023/11/28 03:37:30;;;;;;;0.20;0.20;;;;;;;2.77;100.00;94815.44;5035176;28;20032;-64
2023/11/28 03:39:56;;;;;;;0.30;0.30;;;;;;;2.83;100.00;94817.03;5028796;28;20103;-64
2023/11/28 03:42:22;;;;;;;0.43;0.20;;;;;;;2.76;100.00;94816.50;5041745;28;20087;-64
2023/11/28 03:44:49;;;;;;;1.70;0.30;;;;;;;2.70;100.00;94811.13;5041596;28;20112;-62
2023/11/28 03:47:17;;;;;;;0.80;0.32;;;;;;;2.77;100.00;94810.09;5028990;28;20033;-63
2023/11/28 03:49:43;;;;;;;0.95;0.50;;;;;;;2.63;100.00;94812.47;5035959;28;20124;-62
2023/11/28 03:52:10;;;;;;;1.50;0.52;;;;;;;2.74;100.00;94814.09;5036674;28;20049;-62
2023/11/28 03:54:36;;;;;;;0.80;0.50;;;;;;;2.80;100.00;94810.34;5035561;28;20049;-63
2023/11/28 03:57:03;;;;;;;1.40;0.60;;;;;;;2.75;100.00;94812.22;5032604;28;20045;-62
2023/11/28 03:59:29;;;;;;;2.42;0.70;;;;;;;2.70;100.00;94811.13;5038461;28;20045;-64
2023/11/28 04:01:56;;;;;;;0.60;0.20;;;;;;;2.77;100.00;94812.75;5033528;28;20045;-62
2023/11/28 04:04:23;;;;;;;1.75;0.40;;;;;;;2.78;100.00;94811.69;5038250;28;20039;-64
2023/11/28 04:06:50;;;;;;;0.40;0.30;;;;;;;2.75;100.00;94815.69;5032659;28;20056;-62
2023/11/28 04:09:17;;;;;;;0.95;0.50;;;;;;;2.72;100.00;94814.34;5030383;28;20048;-63
2023/11/28 04:11:43;;;;;;;0.43;0.20;;;;;;;2.61;100.00;94820.75;5045767;28;20045;-64
2023/11/28 04:14:10;;;;;;;2.60;0.70;;;;;;;2.61;100.00;94828.75;5035686;28;20052;-63
2023/11/28 04:16:37;;;;;;;0.55;0.38;;;;;;;2.65;100.00;94829.84;5040416;28;20050;-63
2023/11/28 04:19:04;;;;;;;1.17;0.55;;;;;;;2.69;100.00;94828.25;5038379;28;20174;-63
2023/11/28 04:21:30;;;;;;;2.17;0.77;;;;;;;2.65;100.00;94831.72;5033879;28;20534;-62
2023/11/28 04:24:00;;;;;;;5.25;0.43;;;;;;;2.55;100.00;94837.84;5042109;28;20048;-62
2023/11/28 04:26:27;;;;;;;0.57;0.38;;;;;;;2.45;100.00;94839.44;5036055;28;20040;-63
2023/11/28 04:28:54;;;;;;;0.30;0.25;;;;;;;2.40;100.00;94855.41;5037980;28;20048;-63
2023/11/28 04:31:21;;;;;;;0.47;0.40;;;;;;;2.59;100.00;94850.38;5038490;28;21228;-62
2023/11/28 04:33:53;;;;;;;0.43;0.30;;;;;;;2.70;100.00;94853.09;5033906;28;20048;-64
2023/11/28 04:36:20;;;;;;;0.20;0.20;;;;;;;2.89;100.00;94872.13;5041426;28;20044;-64
2023/11/28 04:38:47;;;;;;;1.45;0.22;;;;;;;3.06;100.00;94884.44;5035499;28;20411;-63
2023/11/28 04:41:14;;;;;;;0.77;0.45;;;;;;;3.11;100.00;94884.44;5037321;28;20075;-63
2023/11/28 04:43:42;;;;;;;0.57;0.40;;;;;;;3.15;100.00;94890.88;5036094;28;20412;-62
2023/11/28 04:46:09;;;;;;;0.68;0.40;;;;;;;3.20;100.00;94884.69;5043148;28;20046;-61
2023/11/28 04:48:36;;;;;;;0.70;0.30;;;;;;;3.22;100.00;94882.59;5036170;28;20056;-62
2023/11/28 04:51:04;;;;;;;0.40;0.38;;;;;;;3.19;100.00;94883.09;5044693;28;20047;-62
2023/11/28 04:53:31;;;;;;;1.05;0.50;;;;;;;3.16;100.00;94876.41;5038490;28;20052;-64
2023/11/28 04:55:58;;;;;;;0.80;0.50;;;;;;;3.14;100.00;94883.09;5036123;28;20095;-64
2023/11/28 04:58:25;;;;;;;2.83;1.23;;;;;;;3.11;100.00;94884.44;5038850;28;20041;-64
2023/11/28 05:00:51;;;;;;;1.30;0.82;;;;;;;3.11;100.00;94885.25;5037248;28;20077;-64
2023/11/28 05:03:18;;;;;;;2.10;1.23;;;;;;;3.10;100.00;94885.53;5033016;28;20072;-64
2023/11/28 05:05:45;;;;;;;2.38;1.38;;;;;;;3.05;100.00;94907.69;5036096;28;20048;-63
2023/11/28 05:08:13;;;;;;;3.25;1.40;;;;;;;3.02;100.00;94891.38;5033327;28;20102;-63
2023/11/28 05:10:39;;;;;;;2.67;1.35;;;;;;;2.98;100.00;94889.25;5036671;28;20049;-63
2023/11/28 05:13:09;;;;;;;4.00;1.40;;;;;;;2.95;100.00;94895.09;5042330;28;20037;-63
2023/11/28 05:15:36;;;;;;;2.35;1.50;;;;;;;2.89;100.00;94906.06;5034707;28;20037;-63
2023/11/28 05:18:03;;;;;;;3.75;1.52;;;;;;;2.89;100.00;94904.19;5029775;28;20091;-63
2023/11/28 05:20:30;;;;;;;3.08;1.58;;;;;;;2.85;100.00;94911.91;5037391;28;20071;-63
2023/11/28 05:22:57;;;;;;;2.92;1.60;;;;;;;2.82;100.00;94917.00;5035852;28;20056;-63
2023/11/28 05:25:24;;;;;;;4.90;2.70;;;;;;;2.80;100.00;94911.13;5037436;28;20037;-63
2023/11/28 05:27:51;;;;;;;3.40;1.70;;;;;;;2.78;100.00;94923.94;5037627;28;20498;-62
2023/11/28 05:30:18;;;;;;;3.20;1.52;;;;;;;2.74;100.00;94923.66;5027257;28;20049;-62
2023/11/28 05:32:45;;;;;;;3.15;1.77;;;;;;;2.73;100.00;94925.53;5028230;28;20036;-63
2023/11/28 05:35:11;;;;;;;2.92;1.40;;;;;;;2.73;100.00;94938.09;5033673;28;20757;-64
2023/11/28 05:37:38;;;;;;;1.85;1.25;;;;;;;2.66;100.00;94935.66;5029319;28;20064;-63
2023/11/28 05:40:07;;;;;;;2.25;1.27;;;;;;;2.60;100.00;94939.38;5025879;28;20500;-63
2023/11/28 05:42:36;;;;;;;2.45;1.40;;;;;;;2.57;100.00;94945.22;5031118;28;20069;-64
2023/11/28 05:45:05;;;;;;;2.85;1.60;;;;;;;2.58;100.00;94958.31;5041299;28;20125;-63
2023/11/28 05:47:32;;;;;;;2.35;1.38;;;;;;;2.57;100.00;94964.75;5038240;28;20045;-62
2023/11/28 05:50:00;;;;;;;2.75;1.70;;;;;;;2.49;100.00;94959.06;5038222;28;20056;-62
2023/11/28 05:52:28;;;;;;;2.90;1.50;;;;;;;2.50;100.00;94966.06;5034474;28;20046;-63
2023/11/28 05:54:55;;;;;;;3.20;1.42;;;;;;;2.39;100.00;94976.66;5037518;28;20144;-62
2023/11/28 05:57:21;;;;;;;2.85;1.60;;;;;;;2.37;100.00;94976.13;5032319;28;20049;-63
2023/11/28 05:59:50;;;;;;;3.28;1.70;;;;;;;2.31;100.00;94985.16;5041275;28;20552;-61
2023/11/28 06:02:17;;;;;;;2.90;1.60;;;;;;;2.23;100.00;94980.31;5039492;28;20033;-61
2023/11/28 06:04:43;;;;;;;3.15;1.65;;;;;;;2.20;100.00;94994.97;5031476;28;20110;-62
2023/11/28 06:07:10;;;;;;;3.33;1.60;;;;;;;2.19;100.00;94996.06;5031964;28;20047;-63
2023/11/28 06:09:37;;;;;;;3.75;1.90;;;;;;;2.14;100.00;95007.50;5029148;28;20042;-62
2023/11/28 06:12:04;;;;;;;5.05;2.08;;;;;;;2.14;100.00;95012.81;5034015;28;20041;-62
2023/11/28 06:14:30;;;;;;;4.00;1.73;;;;;;;2.14;100.00;95022.72;5043728;28;20059;-62
2023/11/28 06:16:59;;;;;;;2.95;1.70;;;;;;;2.13;100.00;95029.13;5037300;28;20041;-63
2023/11/28 06:19:27;;;;;;;4.40;2.20;;;;;;;2.22;100.00;95032.91;5034235;28;20821;-62
2023/11/28 06:21:53;;;;;;;3.58;2.22;;;;;;;2.16;100.00;95050.78;5035250;28;20123;-63
2023/11/28 06:24:20;;;;;;;3.17;1.63;;;;;;;2.14;100.00;95046.75;5035613;28;20037;-63
2023/11/28 06:26:46;;;;;;;2.45;1.20;;;;;;;2.06;100.00;95048.81;5039693;28;20045;-63
2023/11/28 06:29:13;;;;;;;1.88;0.82;;;;;;;1.94;100.00;95059.69;5041433;28;20059;-64
2023/11/28 06:31:39;;;;;;;1.35;0.90;;;;;;;1.88;100.00;95060.69;5036393;28;20491;-64
2023/11/28 06:34:06;;;;;;;1.65;1.00;;;;;;;1.93;100.00;95075.94;5039898;28;20477;-63
2023/11/28 06:36:34;;;;;;;1.55;0.80;;;;;;;1.63;100.00;95071.94;5031159;28;20055;-64
2023/11/28 06:39:01;;;;;;;0.50;0.50;;;;;;;1.17;100.00;95097.84;5029957;28;20045;-63
2023/11/28 06:41:27;;;;;;;0.60;0.40;;;;;;;0.71;100.00;95092.72;5042726;28;20050;-63
2023/11/28 06:43:54;;;;;;;0.55;0.45;;;;;;;0.58;100.00;95106.38;5034855;28;20386;-64
2023/11/28 06:46:21;;;;;;;0.88;0.50;;;;;;;0.28;100.00;95119.00;5038263;28;20058;-63
2023/11/28 06:48:48;;;;;;;1.65;0.80;;;;;;;0.26;100.00;95131.75;5036149;28;20072;-64
2023/11/28 06:51:15;;;;;;;1.27;0.80;;;;;;;0.29;100.00;95144.56;5036738;28;20117;-63
2023/11/28 06:53:42;;;;;;;0.60;0.55;;;;;;;0.08;100.00;95144.22;5037756;28;20041;-63
2023/11/28 06:56:09;;;;;;;1.02;0.70;;;;;;;0.16;100.00;95160.84;5029759;28;20463;-63
2023/11/28 06:58:35;;;;;;;1.20;0.75;;;;;;;-0.02;100.00;95168.81;5031603;28;20053;-63
2023/11/28 07:01:02;;;;;;;1.08;0.70;;;;;;;-0.02;100.00;95178.63;5041571;28;20052;-64
2023/11/28 07:03:31;;;;;;;1.02;0.70;;;;;;;0.02;100.00;95187.75;5032154;28;20164;-64
2023/11/28 07:05:59;;;;;;;1.13;0.80;;;;;;;0.05;100.00;95189.94;5045680;28;20047;-64
2023/11/28 07:08:26;;;;;;;1.83;0.70;;;;;;;0.08;100.00;95201.97;5039654;28;20132;-64
2023/11/28 07:10:52;;;;;;;0.85;0.60;;;;;;;0.15;100.00;95202.63;5039379;28;20497;-64
2023/11/28 07:13:19;;;;;;;0.43;0.43;;;;;;;0.12;100.00;95211.09;5046886;28;20045;-63
2023/11/28 07:15:46;;;;;;;0.98;0.68;;;;;;;-0.09;100.00;95217.88;5038944;28;20687;-64
2023/11/28 07:18:19;;;;;;;1.00;0.60;;;;;;;-0.04;100.00;95225.97;5041050;28;20048;-63
2023/11/28 07:20:48;;;;;;;0.77;0.65;;;;;;;-0.06;100.00;95233.38;5035821;28;20103;-64
2023/11/28 07:23:14;;;;;;;1.58;0.63;;;;;;;-0.14;100.00;95243.34;5045026;28;20101;-64
2023/11/28 07:25:41;;;;;;;1.23;0.60;;;;;;;-0.14;100.00;95259.28;5033150;28;20045;-64
2023/11/28 07:28:07;;;;;;;1.73;0.85;;;;;;;-0.13;100.00;95273.41;5044804;28;20116;-64
2023/11/28 07:30:34;;;;;;;1.10;0.80;;;;;;;-0.20;100.00;95275.38;5038773;28;20047;-64
2023/11/28 07:33:00;;;;;;;1.63;0.80;;;;;;;-0.31;100.00;95274.38;5039036;28;20403;-64
2023/11/28 07:35:27;;;;;;;1.20;0.90;;;;;;;-0.41;100.00;95281.09;5032104;28;20121;-64
2023/11/28 07:37:54;;;;;;;1.35;1.00;;;;;;;-0.37;100.00;95296.59;5032864;28;20034;-64
2023/11/28 07:40:21;;;;;;;1.30;1.00;;;;;;;-0.32;100.00;95304.69;5034640;28;20136;-64
2023/11/28 07:42:48;;;;;;;1.77;1.20;;;;;;;-0.41;100.00;95320.16;5042570;28;20119;-64
2023/11/28 07:45:14;;;;;;;2.28;1.10;;;;;;;-0.38;100.00;95330.34;5036672;28;20045;-64
2023/11/28 07:47:41;;;;;;;2.60;1.45;;;;;;;-0.35;100.00;95342.38;5041877;28;20049;-64
2023/11/28 07:50:08;;;;;;;3.05;1.30;;;;;;;-0.41;100.00;95349.41;5042687;28;20721;-63
2023/11/28 07:52:35;;;;;;;1.90;1.10;;;;;;;-0.42;100.00;95355.78;5031950;28;20045;-63
2023/11/28 07:55:03;;;;;;;2.25;1.20;;;;;;;-0.44;100.00;95360.53;5040111;28;20108;-63
2023/11/28 07:57:30;;;;;;;2.28;1.25;;;;;;;-0.36;100.00;95370.00;5037433;28;20036;-64
2023/11/28 07:59:56;;;;;;;2.25;1.45;;;;;;;-0.41;100.00;95370.69;5036798;28;20052;-64
2023/11/28 08:02:23;;;;;;;1.85;1.40;;;;;;;-0.42;100.00;95374.41;5031504;28;20519;-63
2023/11/28 08:04:49;;;;;;;2.13;1.35;;;;;;;-0.33;100.00;95378.31;5042108;28;20128;-64
2023/11/28 08:07:17;;;;;;;2.78;1.45;;;;;;;-0.36;100.00;95386.78;5047266;28;20072;-64
2023/11/28 08:09:44;;;;;;;2.00;1.33;;;;;;;-0.48;100.00;95383.31;5036356;28;20045;-63
2023/11/28 08:12:10;;;;;;;2.00;1.33;;;;;;;-0.47;100.00;95399.03;5033156;28;20444;-63
2023/11/28 08:14:37;;;;;;;2.08;1.25;;;;;;;-0.42;100.00;95391.16;5038658;28;20083;-64
2023/11/28 08:17:03;;;;;;;2.30;1.20;;;;;;;-0.56;100.00;95400.41;5032837;28;20041;-63
2023/11/28 08:19:30;;;;;;;2.03;1.25;;;;;;;-0.54;100.00;95409.78;5034264;28;20041;-64
2023/11/28 08:21:56;;;;;;;1.98;1.17;;;;;;;-0.41;100.00;95440.66;5036082;28;20052;-63
2023/11/28 08:24:23;;;;;;;2.10;1.30;;;;;;;-0.40;100.00;95441.47;5037749;28;20212;-67
2023/11/28 08:26:49;;;;;;;1.80;1.23;;;;;;;-0.28;100.00;95450.28;5033403;28;20051;-61
2023/11/28 08:29:16;;;;;;;2.30;1.30;;;;;;;-0.45;100.00;95444.81;5040600;28;20064;-63
2023/11/28 08:31:42;;;;;;;2.60;1.48;;;;;;;-0.48;100.00;95452.44;5042080;28;20037;-56
2023/11/28 08:34:10;;;;;;;1.75;1.08;;;;;;;-0.46;100.00;95458.31;5031470;28;20578;-58
2023/11/28 08:36:36;;;;;;;3.03;1.27;;;;;;;-0.31;100.00;95456.03;5036917;28;20577;-61
2023/11/28 08:39:05;;;;;;;2.30;1.20;;;;;;;-0.27;100.00;95467.03;5045039;28;20069;-57
2023/11/28 08:41:31;;;;;;;5.20;2.53;;;;;;;-0.22;100.00;95466.34;5041000;28;20124;-57
2023/11/28 08:43:59;;;;;;;5.65;3.80;;;;;;;-0.08;100.00;95474.91;5040848;28;20124;-57
2023/11/28 08:46:25;;;;;;;3.60;2.20;;;;;;;0.40;100.00;95472.22;5032735;28;20064;-57
2023/11/28 08:48:52;;;;;;;3.80;2.47;;;;;;;0.08;100.00;95462.75;5043870;28;20033;-57
2023/11/28 08:51:20;;;;;;;6.32;2.88;;;;;;;0.16;100.00;95464.25;5036381;28;20683;-54
2023/11/28 08:53:46;;;;;;;3.15;1.75;;;;;;;-0.14;100.00;95464.13;5025705;28;20157;-65
2023/11/28 08:56:13;;;;;;;6.82;3.97;;;;;;;-0.35;100.00;95484.13;5034672;28;20044;-65
2023/11/28 08:58:40;;;;;;;2.97;1.50;;;;;;;-0.36;100.00;95502.97;5034110;28;20686;-65
2023/11/28 09:01:07;;;;;;;3.58;1.63;;;;;;;-0.51;100.00;95520.19;5035104;28;20038;-63
2023/11/28 09:03:33;;;;;;;2.05;1.23;;;;;;;-0.47;100.00;95524.00;5031894;28;20042;-63
2023/11/28 09:06:01;;;;;;;2.40;1.23;;;;;;;-0.42;100.00;95548.06;5033645;28;20521;-63
2023/11/28 09:08:28;;;;;;;9.38;3.97;;;;;;;-0.42;100.00;95545.41;5033046;28;20037;-63
2023/11/28 09:10:56;;;;;;;3.35;1.73;;;;;;;-0.45;100.00;95555.66;5037433;28;20033;-63
2023/11/28 09:13:23;;;;;;;9.45;3.67;;;;;;;-0.51;100.00;95569.88;5044968;28;20765;-63
2023/11/28 09:15:50;;;;;;;1.95;1.13;;;;;;;-0.45;100.00;95577.75;5040836;28;20045;-62
2023/11/28 09:18:16;;;;;;;2.88;1.30;;;;;;;-0.55;100.00;95580.16;5042209;28;20041;-63
2023/11/28 09:20:43;;;;;;;17.38;6.38;;;;;;;-0.53;100.00;95580.72;5044714;28;20651;-63
2023/11/28 09:23:10;;;;;;;3.95;2.05;;;;;;;-0.57;100.00;95582.22;5035793;28;20069;-63
2023/11/28 09:25:37;;;;;;;6.15;3.83;;;;;;;-0.70;100.00;95586.66;5039363;28;20076;-65
2023/11/28 09:28:07;;;;;;;2.22;1.55;;;;;;;-0.54;100.00;95593.22;5042418;28;20053;-63
2023/11/28 09:30:33;;;;;;;2.38;1.33;;;;;;;-0.46;100.00;95602.72;5035928;28;20045;-63
2023/11/28 09:33:00;;;;;;;3.53;2.08;;;;;;;-0.68;100.00;95584.63;5037809;28;20037;-64
2023/11/28 09:35:27;;;;;;;2.60;1.65;;;;;;;-0.70;100.00;95591.97;5043116;28;20118;-63
2023/11/28 09:37:54;;;;;;;2.85;1.70;;;;;;;-0.74;100.00;95590.00;5038594;28;20049;-62
2023/11/28 09:40:21;;;;;;;2.97;1.80;;;;;;;-0.64;100.00;95624.00;5035715;28;20124;-63
2023/11/28 09:42:51;;;;;;;3.50;1.83;;;;;;;-0.61;100.00;95642.19;5034432;28;20041;-63
2023/11/28 09:45:19;;;;;;;2.88;1.70;;;;;;;-0.74;100.00;95651.16;5032767;28;20043;-62
2023/11/28 09:47:47;;;;;;;2.85;1.65;;;;;;;-0.63;100.00;95652.25;5041703;28;20052;-63
2023/11/28 09:50:14;;;;;;;5.63;3.72;;;;;;;-0.55;100.00;95678.53;5029366;28;20049;-61
2023/11/28 09:52:44;;;;;;;3.50;2.20;;;;;;;-0.58;100.00;95650.53;5038946;28;20107;-64
2023/11/28 09:55:15;;;;;;;3.20;1.90;;;;;;;-0.69;100.00;95652.09;5030812;28;20678;-61
2023/11/28 09:57:45;;;;;;;2.90;1.60;;;;;;;-0.60;100.00;95647.28;5041883;28;20055;-63
2023/11/28 10:00:19;;;;;;;5.60;2.20;;;;;;;-0.75;100.00;95655.63;5039221;28;20124;-62
2023/11/28 10:02:51;;;;;;;2.83;2.00;;;;;;;-0.79;100.00;95665.09;5040062;28;20069;-62
2023/11/28 10:05:19;;;;;;;4.82;2.50;;;;;;;-0.79;100.00;95667.75;5041860;28;20056;-62
2023/11/28 10:07:53;;;;;;;3.95;2.55;;;;;;;-0.78;100.00;95680.00;5040392;28;20049;-61
2023/11/28 10:10:21;;;;;;;4.32;2.80;;;;;;;-0.74;100.00;95683.03;5042422;28;20407;-61
2023/11/28 10:12:52;;;;;;;6.38;3.45;;;;;;;-0.72;100.00;95680.97;5040384;28;20049;-62
2023/11/28 10:15:20;;;;;;;4.70;3.15;;;;;;;-0.73;100.00;95679.34;5038971;28;20041;-61
2023/11/28 10:17:49;;;;;;;4.20;2.80;;;;;;;-0.78;100.00;95672.03;5033223;28;20131;-64
2023/11/28 10:20:16;;;;;;;6.93;5.03;;;;;;;-0.71;100.00;95683.41;5034919;28;20040;-63
2023/11/28 10:22:50;;;;;;;5.57;3.67;;;;;;;-0.66;100.00;95688.84;5045611;28;20052;-62
2023/11/28 10:25:19;;;;;;;6.75;4.38;;;;;;;-0.69;100.00;95694.63;5040713;28;20064;-63
2023/11/28 10:27:47;;;;;;;4.07;2.78;;;;;;;-0.70;100.00;95708.94;5037661;28;20095;-63
2023/11/28 10:30:21;;;;;;;6.32;4.50;;;;;;;-0.66;100.00;95699.50;5035538;28;20060;-66
2023/11/28 10:32:51;;;;;;;4.93;3.63;;;;;;;-0.66;100.00;95704.81;5036452;28;20044;-63
2023/11/28 10:35:17;;;;;;;5.00;3.30;;;;;;;-0.69;100.00;95709.75;5037191;28;20614;-62
2023/11/28 10:37:44;;;;;;;10.27;4.95;;;;;;;-0.60;100.00;95711.09;5043426;28;20051;-63
2023/11/28 10:40:17;;;;;;;4.63;3.08;;;;;;;-0.54;100.00;95723.50;5041692;28;20041;-61
2023/11/28 10:42:44;;;;;;;42.25;21.92;;;;;;;-0.66;100.00;95714.66;5039228;28;20124;-63
2023/11/28 10:45:16;;;;;;;7.28;5.13;;;;;;;-0.49;100.00;95732.63;5037635;28;20051;-62
2023/11/28 10:47:43;;;;;;;9.50;7.50;;;;;;;-0.48;100.00;95732.41;5046783;28;20734;-63
2023/11/28 10:50:13;;;;;;;5.90;4.00;;;;;;;-0.49;100.00;95730.81;5042624;28;20040;-63
2023/11/28 10:52:45;;;;;;;5.50;3.80;;;;;;;-0.49;100.00;95729.97;5052206;28;20056;-63
2023/11/28 10:55:18;;;;;;;6.00;3.88;;;;;;;-0.52;100.00;95733.91;5045599;28;20511;-63
2023/11/28 10:58:04;;;;;;;5.50;3.60;;;;;;;-0.58;100.00;95748.91;5043918;28;20508;-63
2023/11/28 11:00:39;;;;;;;6.35;4.63;;;;;;;-0.67;100.00;95745.72;5041706;28;20048;-62
2023/11/28 11:03:08;;;;;;;4.78;3.20;;;;;;;-0.67;100.00;95756.34;5041898;28;20059;-61
2023/11/28 11:05:35;;;;;;;4.63;3.28;;;;;;;-0.77;100.00;95756.06;5045388;28;20059;-62
2023/11/28 11:08:02;;;;;;;4.20;2.90;;;;;;;-0.75;100.00;95774.41;5044063;28;20045;-61
2023/11/28 11:10:30;;;;;;;4.22;2.70;;;;;;;-0.73;100.00;95789.16;5040130;28;20052;-61
2023/11/28 11:13:01;;;;;;;4.75;3.00;;;;;;;-0.92;100.00;95778.47;5035477;28;20045;-63
2023/11/28 11:15:37;;;;;;;4.85;3.33;;;;;;;-0.87;100.00;95801.72;5039627;28;20136;-62
2023/11/28 11:18:12;;;;;;;4.20;2.50;;;;;;;-0.79;100.00;95819.25;5039252;28;20615;-62
2023/11/28 11:20:45;;;;;;;6.57;2.75;;;;;;;-0.94;100.00;95822.22;5037312;28;20102;-63
2023/11/28 11:23:15;;;;;;;2.78;1.80;;;;;;;-0.85;100.00;95826.22;5042239;28;20045;-62
2023/11/28 11:25:45;;;;;;;3.53;2.25;;;;;;;-0.89;100.00;95825.03;5035799;28;20554;-62
2023/11/28 11:28:12;;;;;;;3.03;2.05;;;;;;;-0.83;100.00;95818.88;5038714;28;20047;-62
2023/11/28 11:30:42;;;;;;;3.45;2.05;;;;;;;-0.92;100.00;95823.63;5040289;28;20052;-62